Time;durP1;ratioP1;P1;durP2;ratioP2;P2;SDS_P1;SDS_P2;PMS_P1;PMS_P2;Temp;Humidity;BMP_temperature;BMP_pressure;BME280_temperature;BME280_humidity;BME280_pressure;Samples;Min_cycle;Max_cycle;Signal;HPM_P1;HPM_P2
2024/01/23 00:02:00;;;;;;;6.85;2.78;;;22.20;49.60;;;;;;4949756;28;88414;-62
2024/01/23 00:04:26;;;;;;;9.07;3.30;;;22.20;49.60;;;;;;4957743;28;87504;-63
2024/01/23 00:06:52;;;;;;;6.18;2.47;;;22.20;49.50;;;;;;4949708;28;88006;-61
2024/01/23 00:09:18;;;;;;;6.75;2.92;;;22.20;49.60;;;;;;4955016;28;88008;-63
2024/01/23 00:11:45;;;;;;;6.68;2.55;;;22.10;49.60;;;;;;4948410;28;89035;-63
2024/01/23 00:14:10;;;;;;;6.65;2.65;;;22.10;49.60;;;;;;4952247;28;87484;-63
2024/01/23 00:16:36;;;;;;;10.00;2.85;;;22.10;49.70;;;;;;4957963;28;87461;-63
2024/01/23 00:19:02;;;;;;;4.75;2.38;;;22.10;49.70;;;;;;4954042;28;87258;-63
2024/01/23 00:21:28;;;;;;;6.47;2.92;;;22.10;49.70;;;;;;4953587;28;88957;-62
2024/01/23 00:23:54;;;;;;;5.10;2.72;;;22.00;49.70;;;;;;4955337;28;89273;-62
2024/01/23 00:26:20;;;;;;;7.05;2.90;;;22.00;49.60;;;;;;4952844;28;87545;-63
2024/01/23 00:28:46;;;;;;;6.32;2.72;;;22.00;49.70;;;;;;4955579;28;87521;-61
2024/01/23 00:31:11;;;;;;;4.90;2.30;;;22.00;49.70;;;;;;4953920;28;89970;-62
2024/01/23 00:33:37;;;;;;;6.65;3.00;;;21.90;49.70;;;;;;4951763;28;87764;-61
2024/01/23 00:36:03;;;;;;;6.20;2.83;;;21.90;49.80;;;;;;4951250;28;87515;-63
2024/01/23 00:38:29;;;;;;;4.90;2.53;;;21.90;49.70;;;;;;4954459;28;87121;-63
2024/01/23 00:40:55;;;;;;;7.80;3.03;;;21.90;49.70;;;;;;4948742;28;87580;-63
2024/01/23 00:43:21;;;;;;;4.82;2.55;;;21.90;49.70;;;;;;4953353;28;88397;-61
2024/01/23 00:45:47;;;;;;;5.53;2.72;;;21.80;49.70;;;;;;4951469;28;88368;-63
2024/01/23 00:48:13;;;;;;;6.53;3.10;;;21.80;49.70;;;;;;4956870;28;87586;-61
2024/01/23 00:50:39;;;;;;;7.93;2.95;;;21.80;49.70;;;;;;4951539;28;88513;-64
2024/01/23 00:53:05;;;;;;;7.70;2.90;;;21.80;49.80;;;;;;4952274;28;87489;-62
2024/01/23 00:55:30;;;;;;;8.70;2.95;;;21.80;49.80;;;;;;4952973;28;87691;-61
2024/01/23 00:57:56;;;;;;;6.30;2.65;;;21.80;49.70;;;;;;4947907;28;87022;-63
2024/01/23 01:00:22;;;;;;;6.18;2.95;;;21.80;49.80;;;;;;4953024;28;88132;-62
2024/01/23 01:02:47;;;;;;;5.95;2.55;;;21.80;49.90;;;;;;4948675;28;88380;-64
2024/01/23 01:05:13;;;;;;;5.03;2.70;;;21.70;49.80;;;;;;4950487;28;88927;-61
2024/01/23 01:07:39;;;;;;;6.35;2.78;;;21.70;49.80;;;;;;4952867;28;87737;-62
2024/01/23 01:10:05;;;;;;;4.70;2.63;;;21.70;49.80;;;;;;4955153;28;89271;-63
2024/01/23 01:12:33;;;;;;;6.88;3.10;;;21.70;49.80;;;;;;4945419;28;88432;-63
2024/01/23 01:15:00;;;;;;;5.63;2.42;;;21.60;49.80;;;;;;4952448;28;87823;-62
2024/01/23 01:17:27;;;;;;;6.30;3.03;;;21.60;49.80;;;;;;4952137;28;87942;-63
2024/01/23 01:19:53;;;;;;;5.45;2.60;;;21.60;49.60;;;;;;4954832;28;88568;-62
2024/01/23 01:22:18;;;;;;;4.18;2.42;;;21.60;49.70;;;;;;4955902;28;93043;-63
2024/01/23 01:24:44;;;;;;;7.00;2.60;;;21.60;50.00;;;;;;4954435;28;87022;-62
2024/01/23 01:27:10;;;;;;;6.93;2.70;;;21.60;49.90;;;;;;4959564;28;86979;-63
2024/01/23 01:29:35;;;;;;;6.43;2.88;;;21.50;49.80;;;;;;4951741;28;87979;-63
2024/01/23 01:32:01;;;;;;;4.97;2.40;;;21.50;49.70;;;;;;4956478;28;88301;-63
2024/01/23 01:34:28;;;;;;;3.92;2.38;;;21.50;49.80;;;;;;4951875;28;88287;-62
2024/01/23 01:36:53;;;;;;;5.03;2.17;;;21.50;49.90;;;;;;4950049;28;87222;-64
2024/01/23 01:39:19;;;;;;;6.40;2.42;;;21.50;49.80;;;;;;4955409;28;89361;-62
2024/01/23 01:41:52;;;;;;;5.68;2.30;;;21.50;49.80;;;;;;4951746;28;87480;-62
2024/01/23 01:44:19;;;;;;;5.10;2.45;;;21.40;49.90;;;;;;4953562;28;87835;-62
2024/01/23 01:46:46;;;;;;;5.80;2.75;;;21.40;49.90;;;;;;4954810;28;87219;-62
2024/01/23 01:49:13;;;;;;;4.82;2.00;;;21.40;50.00;;;;;;4952920;28;88306;-61
2024/01/23 01:51:39;;;;;;;5.45;2.53;;;21.40;49.90;;;;;;4959399;28;89054;-63
2024/01/23 01:54:05;;;;;;;5.03;2.42;;;21.40;49.90;;;;;;4954504;28;87340;-63
2024/01/23 01:56:32;;;;;;;6.05;2.65;;;21.30;49.80;;;;;;4961339;28;87401;-61
2024/01/23 01:58:58;;;;;;;5.28;2.60;;;21.30;49.80;;;;;;4983560;28;89215;-61
2024/01/23 02:01:23;;;;;;;6.00;2.35;;;21.40;50.00;;;;;;4952831;28;89689;-62
2024/01/23 02:03:49;;;;;;;7.20;2.92;;;21.30;49.90;;;;;;4958459;28;87544;-63
2024/01/23 02:06:17;;;;;;;3.75;2.20;;;21.30;50.00;;;;;;4952657;28;88781;-62
2024/01/23 02:08:43;;;;;;;6.45;2.63;;;21.30;50.00;;;;;;4955601;28;89181;-63
2024/01/23 02:11:09;;;;;;;4.47;2.63;;;21.30;49.90;;;;;;4952810;28;87434;-62
2024/01/23 02:13:35;;;;;;;5.13;2.25;;;21.30;49.90;;;;;;4956328;28;87566;-62
2024/01/23 02:16:02;;;;;;;4.72;2.63;;;21.30;50.00;;;;;;4951670;28;88205;-63
2024/01/23 02:18:28;;;;;;;5.80;2.75;;;21.30;49.80;;;;;;4953085;28;88389;-63
2024/01/23 02:20:54;;;;;;;5.03;2.40;;;21.20;49.90;;;;;;4952536;28;87730;-63
2024/01/23 02:23:20;;;;;;;4.18;2.03;;;21.20;49.90;;;;;;4956351;28;88834;-62
2024/01/23 02:25:46;;;;;;;4.32;2.20;;;21.20;49.90;;;;;;4939814;28;87559;-63
2024/01/23 02:28:15;;;;;;;7.20;2.80;;;21.20;49.90;;;;;;4954961;28;88249;-62
2024/01/23 02:30:41;;;;;;;6.50;2.15;;;21.20;49.80;;;;;;4953029;28;88556;-63
2024/01/23 02:33:06;;;;;;;4.22;2.45;;;21.20;50.00;;;;;;4956625;28;87386;-62
2024/01/23 02:35:33;;;;;;;3.40;1.52;;;21.20;49.90;;;;;;4953427;28;87949;-63
2024/01/23 02:37:59;;;;;;;5.57;2.35;;;21.10;50.00;;;;;;4956385;28;89080;-62
2024/01/23 02:40:26;;;;;;;4.95;2.55;;;21.10;50.00;;;;;;4954136;28;86911;-61
2024/01/23 02:42:52;;;;;;;4.95;2.50;;;21.10;49.90;;;;;;4959377;28;87503;-63
2024/01/23 02:45:19;;;;;;;4.38;2.15;;;21.10;50.00;;;;;;4954743;28;87286;-61
2024/01/23 02:47:45;;;;;;;4.30;1.70;;;21.10;50.00;;;;;;4947242;28;91254;-64
2024/01/23 02:50:11;;;;;;;4.57;2.10;;;21.10;49.90;;;;;;4953836;28;88217;-61
2024/01/23 02:52:36;;;;;;;4.47;2.30;;;21.10;49.90;;;;;;4957379;28;87922;-62
2024/01/23 02:55:03;;;;;;;4.18;1.90;;;21.10;49.90;;;;;;4954563;28;87114;-63
2024/01/23 02:57:29;;;;;;;4.38;1.95;;;21.10;49.90;;;;;;4961526;28;87949;-63
2024/01/23 02:59:55;;;;;;;4.10;1.92;;;21.10;49.90;;;;;;4952926;28;87718;-62
2024/01/23 03:02:22;;;;;;;3.97;1.88;;;21.10;50.00;;;;;;4952721;28;87020;-63
2024/01/23 03:04:50;;;;;;;4.63;2.40;;;21.00;50.50;;;;;;4959201;28;86893;-64
2024/01/23 03:07:17;;;;;;;5.38;2.10;;;21.00;50.00;;;;;;4954107;28;88238;-62
2024/01/23 03:09:43;;;;;;;3.58;2.00;;;21.00;50.60;;;;;;4955941;28;88524;-62
2024/01/23 03:12:20;;;;;;;3.92;2.03;;;21.00;50.00;;;;;;4953070;28;88602;-63
2024/01/23 03:14:46;;;;;;;4.18;2.08;;;21.00;50.00;;;;;;4959910;28;87581;-61
2024/01/23 03:17:13;;;;;;;3.08;1.65;;;21.00;50.00;;;;;;4958610;28;88296;-63
2024/01/23 03:19:41;;;;;;;4.82;2.30;;;21.00;49.90;;;;;;4935278;28;88025;-63
2024/01/23 03:22:07;;;;;;;4.18;2.30;;;21.00;50.00;;;;;;4955015;28;87506;-62
2024/01/23 03:24:36;;;;;;;4.70;1.98;;;20.90;50.00;;;;;;4973858;28;87841;-63
2024/01/23 03:27:03;;;;;;;4.23;1.97;;;21.00;50.00;;;;;;4950892;28;88031;-62
2024/01/23 03:29:29;;;;;;;4.25;2.17;;;20.90;50.00;;;;;;4935802;28;89128;-62
2024/01/23 03:31:55;;;;;;;5.00;1.75;;;20.90;50.00;;;;;;4953745;28;87778;-63
2024/01/23 03:34:21;;;;;;;6.07;2.25;;;20.90;49.90;;;;;;4956069;28;87072;-63
2024/01/23 03:36:47;;;;;;;4.80;2.35;;;20.90;49.90;;;;;;4948846;28;91413;-63
2024/01/23 03:39:14;;;;;;;3.25;1.83;;;20.90;49.90;;;;;;4952358;28;89368;-63
2024/01/23 03:41:40;;;;;;;3.55;2.25;;;20.90;49.80;;;;;;4950458;28;87272;-63
2024/01/23 03:44:06;;;;;;;4.78;2.05;;;20.90;50.00;;;;;;4967849;28;87741;-62
2024/01/23 03:46:33;;;;;;;4.30;1.92;;;20.80;50.00;;;;;;4951989;28;91446;-63
2024/01/23 03:48:59;;;;;;;2.85;1.80;;;20.80;49.90;;;;;;4953092;28;88855;-62
2024/01/23 03:51:25;;;;;;;4.63;1.98;;;20.80;50.00;;;;;;4935536;28;87478;-63
2024/01/23 03:53:51;;;;;;;3.65;1.85;;;20.80;50.00;;;;;;4951140;28;87498;-61
2024/01/23 03:56:18;;;;;;;4.07;2.03;;;20.80;50.00;;;;;;4949569;28;88896;-62
2024/01/23 03:58:44;;;;;;;3.35;1.88;;;20.80;50.00;;;;;;4957561;28;87725;-63
2024/01/23 04:01:10;;;;;;;5.13;2.05;;;20.80;50.00;;;;;;4954957;28;89125;-62
2024/01/23 04:03:36;;;;;;;4.65;2.22;;;20.80;49.90;;;;;;4949560;28;87556;-62
2024/01/23 04:06:02;;;;;;;3.75;1.95;;;20.80;49.90;;;;;;4950296;28;88111;-62
2024/01/23 04:08:28;;;;;;;5.93;2.58;;;20.80;50.00;;;;;;4951790;28;87797;-63
2024/01/23 04:10:54;;;;;;;3.40;1.73;;;20.70;50.00;;;;;;4950577;28;87268;-64
2024/01/23 04:13:19;;;;;;;4.70;2.22;;;20.70;49.90;;;;;;4935271;28;90275;-62
2024/01/23 04:15:45;;;;;;;4.78;1.80;;;20.70;50.00;;;;;;4951121;28;87505;-63
2024/01/23 04:18:11;;;;;;;3.50;2.00;;;20.70;50.00;;;;;;4956964;28;87360;-64
2024/01/23 04:20:40;;;;;;;4.88;2.08;;;20.70;49.90;;;;;;4955534;28;88022;-62
2024/01/23 04:23:06;;;;;;;3.83;1.77;;;20.70;49.90;;;;;;4951153;28;89561;-63
2024/01/23 04:25:31;;;;;;;3.90;1.70;;;20.70;50.00;;;;;;4951340;28;88713;-62
2024/01/23 04:27:57;;;;;;;3.60;2.10;;;20.70;50.00;;;;;;4952246;28;88313;-62
2024/01/23 04:30:25;;;;;;;4.05;1.95;;;20.70;49.80;;;;;;4953817;28;87228;-63
2024/01/23 04:32:51;;;;;;;4.93;1.80;;;20.70;49.90;;;;;;4988908;28;87657;-63
2024/01/23 04:35:17;;;;;;;3.40;1.92;;;20.70;49.90;;;;;;4959170;28;87942;-62
2024/01/23 04:37:43;;;;;;;3.60;1.92;;;20.60;49.90;;;;;;4951217;28;87503;-63
2024/01/23 04:40:09;;;;;;;3.88;1.65;;;20.60;49.90;;;;;;4948094;28;87617;-62
2024/01/23 04:42:36;;;;;;;4.47;1.70;;;20.60;49.80;;;;;;4951791;28;87751;-63
2024/01/23 04:45:03;;;;;;;4.00;1.58;;;20.60;49.80;;;;;;4954006;28;89342;-62
2024/01/23 04:47:29;;;;;;;4.45;1.42;;;20.60;50.00;;;;;;4955393;28;89865;-63
2024/01/23 04:49:55;;;;;;;3.03;1.77;;;20.60;50.00;;;;;;4951282;28;87965;-62
2024/01/23 04:52:20;;;;;;;3.75;1.52;;;20.60;49.90;;;;;;4955987;28;87966;-63
2024/01/23 04:54:46;;;;;;;4.05;1.75;;;20.60;50.00;;;;;;4957669;28;86984;-61
2024/01/23 04:57:14;;;;;;;3.53;1.60;;;20.60;50.00;;;;;;4957368;28;88251;-62
2024/01/23 04:59:41;;;;;;;4.35;1.75;;;20.60;49.90;;;;;;4960179;28;87743;-63
2024/01/23 05:02:06;;;;;;;3.15;1.75;;;20.60;50.00;;;;;;4957653;28;87366;-61
2024/01/23 05:04:32;;;;;;;4.20;1.85;;;20.50;49.80;;;;;;4955327;28;87916;-64
2024/01/23 05:06:58;;;;;;;3.88;1.90;;;20.50;49.90;;;;;;4958661;28;87099;-62
2024/01/23 05:09:24;;;;;;;3.85;2.05;;;20.50;50.00;;;;;;4952638;28;88381;-62
2024/01/23 05:11:50;;;;;;;3.88;1.85;;;20.50;49.90;;;;;;4954715;28;87314;-62
2024/01/23 05:14:17;;;;;;;3.92;1.73;;;20.50;49.90;;;;;;4951525;28;89090;-60
2024/01/23 05:16:43;;;;;;;5.75;1.60;;;20.50;50.00;;;;;;4958585;28;89426;-62
2024/01/23 05:19:09;;;;;;;5.35;1.58;;;20.50;49.90;;;;;;4954682;28;87697;-62
2024/01/23 05:21:36;;;;;;;3.83;2.13;;;20.50;50.00;;;;;;4954717;28;87050;-61
2024/01/23 05:24:05;;;;;;;3.80;1.63;;;20.40;50.10;;;;;;4954252;28;88867;-62
2024/01/23 05:26:31;;;;;;;2.83;1.45;;;20.50;50.10;;;;;;4959627;28;88647;-62
2024/01/23 05:28:58;;;;;;;3.15;1.85;;;20.50;50.20;;;;;;4951785;28;88155;-61
2024/01/23 05:31:24;;;;;;;3.78;1.70;;;20.50;50.10;;;;;;4958749;28;86549;-62
2024/01/23 05:33:49;;;;;;;5.05;2.20;;;20.40;50.10;;;;;;4955489;28;88238;-62
2024/01/23 05:36:15;;;;;;;3.70;1.80;;;20.40;50.10;;;;;;4955926;28;88160;-62
2024/01/23 05:38:41;;;;;;;3.03;1.58;;;20.40;50.00;;;;;;4950417;28;88831;-62
2024/01/23 05:41:06;;;;;;;2.97;1.35;;;20.40;50.00;;;;;;4949121;28;87847;-62
2024/01/23 05:43:32;;;;;;;4.38;1.75;;;20.40;50.00;;;;;;4953149;28;88531;-62
2024/01/23 05:45:58;;;;;;;3.78;1.50;;;20.40;50.20;;;;;;4955084;28;88879;-64
2024/01/23 05:48:24;;;;;;;3.17;1.60;;;20.40;50.00;;;;;;4957631;28;87554;-62
2024/01/23 05:50:49;;;;;;;2.95;1.70;;;20.40;50.20;;;;;;4953326;28;88289;-62
2024/01/23 05:53:15;;;;;;;5.47;1.95;;;20.40;50.10;;;;;;4954968;28;89563;-63
2024/01/23 05:55:41;;;;;;;4.38;1.90;;;20.40;50.10;;;;;;4959140;28;87831;-62
2024/01/23 05:58:06;;;;;;;4.25;1.80;;;20.40;50.20;;;;;;4956650;28;87875;-62
2024/01/23 06:00:33;;;;;;;2.97;1.20;;;20.40;50.10;;;;;;4957134;28;87886;-61
2024/01/23 06:03:00;;;;;;;3.10;1.67;;;20.30;50.00;;;;;;4956350;28;88625;-62
2024/01/23 06:05:25;;;;;;;2.97;1.33;;;20.30;49.90;;;;;;4949523;28;88703;-62
2024/01/23 06:07:51;;;;;;;3.30;1.50;;;20.30;50.10;;;;;;4952858;28;86991;-63
2024/01/23 06:10:17;;;;;;;2.55;1.40;;;20.30;49.80;;;;;;4953457;28;87962;-62
2024/01/23 06:12:44;;;;;;;2.60;1.52;;;20.30;49.90;;;;;;4957795;28;88421;-61
2024/01/23 06:15:10;;;;;;;3.67;1.58;;;20.30;50.00;;;;;;4983345;28;90359;-63
2024/01/23 06:17:37;;;;;;;2.25;1.38;;;20.30;50.00;;;;;;4957331;28;87154;-61
2024/01/23 06:20:07;;;;;;;2.95;1.40;;;20.30;50.10;;;;;;4951389;28;87777;-61
2024/01/23 06:22:34;;;;;;;3.72;1.52;;;20.30;50.00;;;;;;4956437;28;89184;-62
2024/01/23 06:25:08;;;;;;;3.80;1.40;;;20.20;49.90;;;;;;4950911;28;88741;-62
2024/01/23 06:27:35;;;;;;;4.30;1.98;;;20.30;50.00;;;;;;4953376;28;88929;-63
2024/01/23 06:30:01;;;;;;;3.10;1.70;;;20.20;49.90;;;;;;4952096;28;87750;-62
2024/01/23 06:32:26;;;;;;;3.00;1.65;;;20.20;49.80;;;;;;4956667;28;88895;-63
2024/01/23 06:34:52;;;;;;;3.55;1.48;;;20.20;50.00;;;;;;4953256;28;88751;-63
2024/01/23 06:37:21;;;;;;;2.38;1.25;;;20.20;50.10;;;;;;4951239;28;87771;-61
2024/01/23 06:39:47;;;;;;;2.30;1.42;;;20.20;49.90;;;;;;4951087;28;87714;-62
2024/01/23 06:42:13;;;;;;;2.92;1.63;;;20.30;49.90;;;;;;4948506;28;87570;-63
2024/01/23 06:44:39;;;;;;;4.78;1.48;;;20.20;49.80;;;;;;4960453;28;87819;-62
2024/01/23 06:47:06;;;;;;;3.55;1.70;;;20.20;49.80;;;;;;4957071;28;87949;-63
2024/01/23 06:49:32;;;;;;;2.05;1.38;;;20.20;49.80;;;;;;4952366;28;87092;-62
2024/01/23 06:51:58;;;;;;;4.03;1.95;;;20.20;49.80;;;;;;4949897;28;89394;-62
2024/01/23 06:54:24;;;;;;;3.70;1.70;;;20.20;49.80;;;;;;4951562;28;88969;-62
2024/01/23 06:56:49;;;;;;;4.00;1.88;;;20.10;49.80;;;;;;4963373;28;88024;-62
2024/01/23 06:59:18;;;;;;;3.50;1.60;;;20.10;49.80;;;;;;4953458;28;88113;-61
2024/01/23 07:01:44;;;;;;;4.60;1.40;;;20.10;49.40;;;;;;4958321;28;89123;-61
2024/01/23 07:04:12;;;;;;;3.55;1.70;;;20.10;48.80;;;;;;4955112;28;88924;-61
2024/01/23 07:06:38;;;;;;;3.53;1.52;;;20.10;48.80;;;;;;4954767;28;87367;-61
2024/01/23 07:09:05;;;;;;;2.10;1.48;;;20.10;48.90;;;;;;4951899;28;87515;-62
2024/01/23 07:11:30;;;;;;;2.58;1.10;;;20.10;48.90;;;;;;4954203;28;88078;-61
2024/01/23 07:13:56;;;;;;;3.30;1.58;;;20.10;48.90;;;;;;4954178;28;87815;-60
2024/01/23 07:16:22;;;;;;;3.45;1.30;;;20.10;49.00;;;;;;4950227;28;88683;-61
2024/01/23 07:18:49;;;;;;;4.82;1.65;;;20.10;49.00;;;;;;4958491;28;88120;-60
2024/01/23 07:21:15;;;;;;;4.25;1.40;;;20.10;48.90;;;;;;4953059;28;88900;-60
2024/01/23 07:23:41;;;;;;;3.58;1.63;;;20.10;49.10;;;;;;4951979;28;87700;-62
2024/01/23 07:26:06;;;;;;;3.83;1.73;;;20.10;49.30;;;;;;4950713;28;87362;-61
2024/01/23 07:28:32;;;;;;;3.65;1.40;;;20.10;49.40;;;;;;4954705;28;87760;-63
2024/01/23 07:30:58;;;;;;;3.33;1.70;;;20.10;49.50;;;;;;4949307;28;88424;-60
2024/01/23 07:33:24;;;;;;;3.13;1.70;;;20.10;49.80;;;;;;4953798;28;87865;-61
2024/01/23 07:35:51;;;;;;;3.83;1.80;;;20.10;50.10;;;;;;4955009;28;87391;-62
2024/01/23 07:38:18;;;;;;;2.22;1.10;;;20.10;49.90;;;;;;4951309;28;87715;-60
2024/01/23 07:40:45;;;;;;;3.72;1.60;;;20.10;49.70;;;;;;4954835;28;90232;-62
2024/01/23 07:43:10;;;;;;;3.83;1.80;;;20.20;50.40;;;;;;4952840;28;88723;-62
2024/01/23 07:45:38;;;;;;;2.95;1.40;;;20.30;50.60;;;;;;4952914;28;87998;-62
2024/01/23 07:48:04;;;;;;;3.25;1.50;;;20.50;50.50;;;;;;4955516;28;87687;-61
2024/01/23 07:50:30;;;;;;;4.00;2.00;;;20.60;50.60;;;;;;4952806;28;87433;-63
2024/01/23 07:52:56;;;;;;;4.75;1.25;;;20.70;50.50;;;;;;4954918;28;87733;-61
2024/01/23 07:55:24;;;;;;;3.47;1.60;;;20.80;50.40;;;;;;4955298;28;87589;-61
2024/01/23 07:57:49;;;;;;;2.92;1.30;;;21.00;50.30;;;;;;4950526;28;88271;-61
2024/01/23 08:00:18;;;;;;;3.00;1.20;;;21.10;50.20;;;;;;4952291;28;88425;-62
2024/01/23 08:02:45;;;;;;;3.65;1.50;;;21.10;50.00;;;;;;4949733;28;87984;-62
2024/01/23 08:05:11;;;;;;;3.47;1.42;;;21.10;49.80;;;;;;4952289;28;89993;-62
2024/01/23 08:07:38;;;;;;;2.85;1.50;;;21.10;50.10;;;;;;4951730;28;87600;-60
2024/01/23 08:10:04;;;;;;;4.32;1.60;;;21.20;49.80;;;;;;4955851;28;88172;-61
2024/01/23 08:12:31;;;;;;;5.45;1.48;;;21.30;50.00;;;;;;4954691;28;90528;-61
2024/01/23 08:14:57;;;;;;;2.65;1.23;;;21.30;49.80;;;;;;4948477;28;87327;-61
2024/01/23 08:17:23;;;;;;;4.18;1.55;;;21.40;49.90;;;;;;4930472;28;89907;-62
2024/01/23 08:19:50;;;;;;;3.85;1.35;;;21.50;49.80;;;;;;4936477;28;87648;-62
2024/01/23 08:22:16;;;;;;;3.30;1.52;;;21.50;49.40;;;;;;4954127;28;88107;-62
2024/01/23 08:24:42;;;;;;;40.72;5.05;;;21.60;49.40;;;;;;4950469;28;87758;-62
2024/01/23 08:27:07;;;;;;;15.30;3.47;;;21.60;48.80;;;;;;4945149;28;88072;-63
2024/01/23 08:29:34;;;;;;;18.70;3.88;;;21.60;48.60;;;;;;4952410;28;90541;-62
2024/01/23 08:32:00;;;;;;;19.42;4.03;;;21.70;48.80;;;;;;4957812;28;89349;-63
2024/01/23 08:34:26;;;;;;;14.55;3.90;;;21.70;49.30;;;;;;4954596;28;87389;-63
2024/01/23 08:36:52;;;;;;;26.13;4.93;;;21.70;49.80;;;;;;4954673;28;89420;-64
2024/01/23 08:39:18;;;;;;;20.63;4.70;;;21.80;50.10;;;;;;4955084;28;87539;-63
2024/01/23 08:41:44;;;;;;;23.25;4.40;;;21.80;50.20;;;;;;4957143;28;87224;-62
2024/01/23 08:44:10;;;;;;;17.58;4.05;;;21.90;50.40;;;;;;4958635;28;87100;-62
2024/01/23 08:46:37;;;;;;;18.10;5.07;;;21.90;50.50;;;;;;4986809;28;87196;-63
2024/01/23 08:49:04;;;;;;;18.45;4.03;;;21.90;50.80;;;;;;4957882;28;90955;-62
2024/01/23 08:51:30;;;;;;;15.70;4.70;;;21.90;51.10;;;;;;4952643;28;89687;-62
2024/01/23 08:53:56;;;;;;;15.25;3.72;;;21.90;50.60;;;;;;4956335;28;88269;-65
2024/01/23 08:56:23;;;;;;;16.58;4.80;;;22.00;51.00;;;;;;4959659;28;87790;-63
2024/01/23 08:58:50;;;;;;;16.77;4.25;;;22.00;51.30;;;;;;4954187;28;88089;-61
2024/01/23 09:01:16;;;;;;;17.73;4.70;;;22.00;49.80;;;;;;4954756;28;87449;-63
2024/01/23 09:03:43;;;;;;;17.85;4.32;;;22.00;49.90;;;;;;4953148;28;87536;-64
2024/01/23 09:06:10;;;;;;;13.63;4.15;;;22.00;49.20;;;;;;4947501;28;87512;-62
2024/01/23 09:08:41;;;;;;;13.15;4.38;;;22.10;49.10;;;;;;4946450;28;88789;-62
2024/01/23 09:11:07;;;;;;;14.73;4.40;;;22.00;49.10;;;;;;4949821;28;89246;-64
2024/01/23 09:13:33;;;;;;;14.10;4.43;;;22.10;49.10;;;;;;4971133;28;88720;-64
2024/01/23 09:16:00;;;;;;;14.85;4.93;;;22.10;49.00;;;;;;4954342;28;88253;-65
2024/01/23 09:18:30;;;;;;;16.88;5.07;;;22.10;48.90;;;;;;4954515;28;90166;-62
2024/01/23 09:20:58;;;;;;;14.88;4.97;;;22.10;48.90;;;;;;4950350;28;89507;-63
2024/01/23 09:23:24;;;;;;;15.57;4.72;;;22.10;49.20;;;;;;4956536;28;87643;-62
2024/01/23 09:25:51;;;;;;;17.70;4.70;;;22.10;49.00;;;;;;4959619;28;87784;-63
2024/01/23 09:28:16;;;;;;;17.08;5.07;;;22.10;49.00;;;;;;4954149;28;87483;-63
2024/01/23 09:30:43;;;;;;;17.15;4.53;;;22.10;49.00;;;;;;4950363;28;87333;-63
2024/01/23 09:33:09;;;;;;;16.98;4.85;;;22.10;48.80;;;;;;4985043;28;87754;-61
2024/01/23 09:35:36;;;;;;;17.48;4.40;;;22.20;49.10;;;;;;4957679;28;90377;-61
2024/01/23 09:38:02;;;;;;;13.98;4.47;;;22.20;48.80;;;;;;4951365;28;88716;-62
2024/01/23 09:40:27;;;;;;;16.13;4.00;;;22.20;49.40;;;;;;4983546;28;88345;-62
2024/01/23 09:42:56;;;;;;;18.10;5.45;;;22.20;48.80;;;;;;4963572;28;88777;-61
2024/01/23 09:45:26;;;;;;;23.35;6.07;;;22.20;48.70;;;;;;4947504;28;87023;-62
2024/01/23 09:47:52;;;;;;;16.10;3.95;;;22.20;48.90;;;;;;4953016;28;90147;-62
2024/01/23 09:50:18;;;;;;;15.35;4.68;;;22.20;48.90;;;;;;4951536;28;89636;-63
2024/01/23 09:52:46;;;;;;;14.73;4.47;;;22.20;49.00;;;;;;4956062;28;88531;-64
2024/01/23 09:55:12;;;;;;;13.63;4.22;;;22.30;48.90;;;;;;4953197;28;87707;-62
2024/01/23 09:57:43;;;;;;;14.15;4.50;;;22.30;48.80;;;;;;4948229;28;88974;-62
2024/01/23 10:00:13;;;;;;;12.60;4.88;;;22.30;49.00;;;;;;4953187;28;87929;-61
2024/01/23 10:02:39;;;;;;;16.02;4.18;;;22.30;49.00;;;;;;4957967;28;87356;-62
2024/01/23 10:05:15;;;;;;;18.75;4.75;;;22.30;48.90;;;;;;4953913;28;87716;-62
2024/01/23 10:07:43;;;;;;;20.48;5.22;;;22.30;48.90;;;;;;4956951;28;89103;-62
2024/01/23 10:10:17;;;;;;;15.52;4.22;;;22.30;48.80;;;;;;4959168;28;89244;-63
2024/01/23 10:12:47;;;;;;;11.93;4.47;;;22.40;48.80;;;;;;4955799;28;87486;-64
2024/01/23 10:15:18;;;;;;;12.23;5.07;;;22.40;49.40;;;;;;4953296;28;87390;-63
2024/01/23 10:17:48;;;;;;;21.13;5.55;;;22.40;49.10;;;;;;4949580;28;88985;-63
2024/01/23 10:20:14;;;;;;;11.15;3.80;;;22.40;48.80;;;;;;4953492;28;87733;-64
2024/01/23 10:22:41;;;;;;;11.45;4.50;;;22.40;48.90;;;;;;4954939;28;87973;-70
2024/01/23 10:25:10;;;;;;;13.18;4.78;;;22.40;48.90;;;;;;4953600;28;87857;-62
2024/01/23 10:27:36;;;;;;;14.60;5.07;;;22.40;48.70;;;;;;4957831;28;88310;-61
2024/01/23 10:30:03;;;;;;;11.15;4.15;;;22.40;48.50;;;;;;4954278;28;88040;-61
2024/01/23 10:32:30;;;;;;;15.13;4.50;;;22.40;48.60;;;;;;4956006;28;88577;-61
2024/01/23 10:34:56;;;;;;;14.23;4.50;;;22.40;48.50;;;;;;4956338;28;88210;-60
2024/01/23 10:37:22;;;;;;;13.57;4.43;;;22.40;48.50;;;;;;4957528;28;88526;-61
2024/01/23 10:39:51;;;;;;;15.45;4.35;;;22.40;48.40;;;;;;4956003;28;87850;-62
2024/01/23 10:42:21;;;;;;;13.45;4.97;;;22.40;48.30;;;;;;4955432;28;87347;-59
2024/01/23 10:44:51;;;;;;;10.63;3.97;;;22.40;48.30;;;;;;4953369;28;87601;-59
2024/01/23 10:47:19;;;;;;;13.25;4.18;;;22.40;48.30;;;;;;4955447;28;88744;-60
2024/01/23 10:49:45;;;;;;;12.77;4.00;;;22.40;48.50;;;;;;4955648;28;88344;-61
2024/01/23 10:52:19;;;;;;;10.88;3.97;;;22.40;48.30;;;;;;4950863;28;87539;-62
2024/01/23 10:54:46;;;;;;;15.07;3.28;;;22.40;48.40;;;;;;4972741;28;87701;-61
2024/01/23 10:57:24;;;;;;;12.70;4.03;;;22.40;48.30;;;;;;4951950;28;89526;-62
2024/01/23 10:59:51;;;;;;;10.20;3.72;;;22.40;48.40;;;;;;4955006;28;88551;-61
2024/01/23 11:02:24;;;;;;;9.73;4.15;;;22.40;48.40;;;;;;4956658;28;87588;-61
2024/01/23 11:04:52;;;;;;;12.63;3.78;;;22.40;48.40;;;;;;4953142;28;87863;-62
2024/01/23 11:07:41;;;;;;;11.85;3.28;;;22.40;48.40;;;;;;4951192;28;87894;-61
2024/01/23 11:10:27;;;;;;;9.93;3.85;;;22.40;48.50;;;;;;4953849;28;87372;-61
2024/01/23 11:13:21;;;;;;;11.40;3.65;;;22.40;48.30;;;;;;4949500;28;87234;-61
2024/01/23 11:15:47;;;;;;;8.25;3.13;;;22.40;48.40;;;;;;4955145;28;86664;-61
2024/01/23 11:18:34;;;;;;;11.50;4.18;;;22.40;48.40;;;;;;4946149;28;89055;-62
2024/01/23 11:21:05;;;;;;;11.88;3.92;;;22.40;48.60;;;;;;4949526;28;90724;-61
2024/01/23 11:23:42;;;;;;;11.35;3.78;;;22.40;48.70;;;;;;4947923;28;88807;-61
2024/01/23 11:26:22;;;;;;;10.50;3.63;;;22.40;48.50;;;;;;4952395;28;87779;-61
2024/01/23 11:29:05;;;;;;;9.18;3.08;;;22.40;48.40;;;;;;4955076;28;88424;-62
2024/01/23 11:31:39;;;;;;;9.38;3.60;;;22.40;48.40;;;;;;4952319;28;93637;-61
2024/01/23 11:34:38;;;;;;;7.75;3.65;;;22.40;48.50;;;;;;4952086;28;86973;-61
2024/01/23 11:37:04;;;;;;;10.45;3.08;;;22.40;48.60;;;;;;4954777;28;87608;-62
2024/01/23 11:39:34;;;;;;;10.10;4.18;;;22.40;48.70;;;;;;4949779;28;90678;-62
2024/01/23 11:42:00;;;;;;;7.43;3.30;;;22.40;48.50;;;;;;4957299;28;88564;-61
2024/01/23 11:44:26;;;;;;;8.23;3.30;;;22.40;48.40;;;;;;4951506;28;87986;-63
2024/01/23 11:46:51;;;;;;;11.65;3.80;;;22.40;48.40;;;;;;4950843;28;87554;-61
2024/01/23 11:49:17;;;;;;;9.70;3.65;;;22.40;48.60;;;;;;4953047;28;89582;-61
2024/01/23 11:51:44;;;;;;;10.18;3.85;;;22.40;48.40;;;;;;4955147;28;89741;-62
2024/01/23 11:54:11;;;;;;;12.73;4.22;;;22.40;48.30;;;;;;4954146;28;87583;-63
2024/01/23 11:56:38;;;;;;;9.90;3.10;;;22.40;48.10;;;;;;4952914;28;89331;-61
2024/01/23 11:59:04;;;;;;;11.88;3.83;;;22.30;48.40;;;;;;4953226;28;90266;-61
2024/01/23 12:01:31;;;;;;;7.85;3.65;;;22.20;48.30;;;;;;4951984;28;89232;-61
2024/01/23 12:03:57;;;;;;;12.98;4.28;;;22.30;48.50;;;;;;4937886;28;87882;-62
2024/01/23 12:06:25;;;;;;;9.30;4.18;;;22.20;48.50;;;;;;4954002;28;88141;-61
2024/01/23 12:08:51;;;;;;;13.02;5.38;;;22.20;48.60;;;;;;4952849;28;88874;-61
2024/01/23 12:11:18;;;;;;;22.67;4.07;;;22.20;48.40;;;;;;4953667;28;88004;-60
2024/01/23 12:13:48;;;;;;;13.40;3.38;;;22.10;48.40;;;;;;4948505;28;89237;-61
2024/01/23 12:16:15;;;;;;;17.10;3.60;;;22.10;48.60;;;;;;4950159;28;87582;-61
2024/01/23 12:18:40;;;;;;;13.15;3.88;;;22.10;48.60;;;;;;4952009;28;87647;-61
2024/01/23 12:21:07;;;;;;;15.10;4.85;;;22.10;48.80;;;;;;4947326;28;87916;-61
2024/01/23 12:23:33;;;;;;;12.25;4.32;;;22.10;48.80;;;;;;4951107;28;87811;-61
2024/01/23 12:26:00;;;;;;;14.48;3.83;;;22.10;48.80;;;;;;4944430;28;87255;-62
2024/01/23 12:28:29;;;;;;;14.05;4.45;;;22.00;48.70;;;;;;4951405;28;88940;-62
2024/01/23 12:30:56;;;;;;;12.38;3.78;;;22.00;48.70;;;;;;4940266;28;89684;-61
2024/01/23 12:33:22;;;;;;;12.70;3.95;;;22.00;48.90;;;;;;4940427;28;87030;-61
2024/01/23 12:35:48;;;;;;;10.63;3.85;;;21.90;48.80;;;;;;4953511;28;87907;-61
2024/01/23 12:38:20;;;;;;;10.35;3.75;;;21.90;48.90;;;;;;4944423;28;89943;-61
2024/01/23 12:40:47;;;;;;;12.80;4.10;;;21.90;49.00;;;;;;4954634;28;88857;-60
2024/01/23 12:43:15;;;;;;;16.02;4.55;;;21.90;48.80;;;;;;4953970;28;88130;-61